Time;durP1;ratioP1;P1;durP2;ratioP2;P2;SDS_P1;SDS_P2;PMS_P1;PMS_P2;Temp;Humidity;BMP_temperature;BMP_pressure;BME280_temperature;BME280_humidity;BME280_pressure;Samples;Min_cycle;Max_cycle;Signal;HPM_P1;HPM_P2
2022/04/26 03:36:18;;;;;;;8.63;6.83;;;11.30;96.50;;;;;;5029629;28;20255;-36
2022/04/26 03:38:48;;;;;;;7.63;6.13;;;11.20;96.50;;;;;;5031297;28;20279;-36
2022/04/26 03:41:17;;;;;;;9.70;5.40;;;11.30;96.50;;;;;;5035556;28;20208;-36
2022/04/26 03:43:45;;;;;;;7.70;5.20;;;11.30;96.20;;;;;;5044083;28;20643;-36
2022/04/26 03:46:14;;;;;;;7.17;5.70;;;11.30;96.30;;;;;;5043914;28;20215;-37
2022/04/26 03:48:41;;;;;;;6.67;4.73;;;11.20;96.80;;;;;;5044526;28;20644;-37
2022/04/26 03:51:09;;;;;;;7.27;4.97;;;11.20;96.40;;;;;;5041031;28;20209;-36
2022/04/26 03:53:36;;;;;;;6.77;5.47;;;11.10;96.60;;;;;;5028052;28;20260;-36
2022/04/26 03:56:04;;;;;;;8.73;5.17;;;11.10;96.20;;;;;;5036679;28;20338;-36
2022/04/26 03:58:33;;;;;;;11.67;5.67;;;11.10;96.50;;;;;;5035978;28;20316;-36
2022/04/26 04:01:00;;;;;;;6.77;4.40;;;11.00;96.40;;;;;;5042003;28;20640;-36
2022/04/26 04:03:28;;;;;;;6.33;4.87;;;11.00;96.10;;;;;;5047441;28;20214;-36
2022/04/26 04:05:55;;;;;;;5.20;4.33;;;10.90;96.00;;;;;;5046921;28;20603;-36
2022/04/26 04:08:22;;;;;;;8.67;4.77;;;10.90;96.10;;;;;;5037743;28;20334;-36
2022/04/26 04:10:50;;;;;;;5.27;4.40;;;10.90;96.30;;;;;;5032509;28;20291;-36
2022/04/26 04:13:18;;;;;;;5.13;4.27;;;10.90;96.10;;;;;;5026358;28;20224;-36
2022/04/26 04:15:46;;;;;;;5.93;4.97;;;10.90;96.10;;;;;;5042981;28;20727;-36
2022/04/26 04:21:00;;;;;;;5.47;4.40;;;10.80;96.20;;;;;;5045333;28;20706;-36
2022/04/26 04:23:27;;;;;;;6.17;4.37;;;10.80;96.20;;;;;;5048402;28;20192;-36
2022/04/26 04:25:55;;;;;;;6.83;4.77;;;10.80;96.10;;;;;;5040647;28;20286;-36
2022/04/26 04:28:23;;;;;;;4.97;4.23;;;10.80;96.20;;;;;;5034679;28;20211;-36
2022/04/26 04:30:51;;;;;;;6.43;4.70;;;10.80;96.10;;;;;;5029055;28;20208;-36
2022/04/26 04:33:18;;;;;;;6.87;4.77;;;10.80;96.30;;;;;;5035321;28;20205;-36
2022/04/26 04:35:45;;;;;;;6.10;4.43;;;10.80;96.40;;;;;;5030507;28;20208;-36
2022/04/26 04:38:13;;;;;;;7.03;4.77;;;10.80;96.10;;;;;;5040339;28;20294;-36
2022/04/26 04:40:43;;;;;;;6.40;4.33;;;10.80;96.20;;;;;;5041112;28;20579;-36
2022/04/26 04:43:11;;;;;;;5.50;4.13;;;10.70;96.10;;;;;;5046028;28;20546;-37
2022/04/26 04:45:42;;;;;;;6.20;4.30;;;10.70;96.20;;;;;;5042569;28;20204;-36
2022/04/26 04:48:10;;;;;;;8.03;4.47;;;10.70;96.10;;;;;;5038729;28;20237;-36
2022/04/26 04:50:37;;;;;;;6.37;4.50;;;10.70;96.10;;;;;;5027298;28;20270;-37
2022/04/26 04:53:05;;;;;;;8.23;5.00;;;10.80;96.20;;;;;;5027367;28;20212;-37
2022/04/26 04:55:35;;;;;;;7.57;4.97;;;10.80;96.20;;;;;;5032813;28;20737;-36
2022/04/26 04:58:02;;;;;;;4.73;4.23;;;10.70;96.40;;;;;;5034920;28;20207;-36
2022/04/26 05:00:31;;;;;;;6.80;4.80;;;10.70;96.10;;;;;;5027683;28;20220;-36
2022/04/26 05:03:01;;;;;;;6.47;5.10;;;10.80;96.30;;;;;;5027762;28;20695;-37
2022/04/26 05:05:28;;;;;;;6.00;4.40;;;10.80;96.30;;;;;;5034174;28;20207;-37
2022/04/26 05:07:58;;;;;;;5.23;4.33;;;10.80;96.20;;;;;;5031179;28;20286;-37
2022/04/26 05:10:25;;;;;;;4.73;4.27;;;10.80;96.20;;;;;;5029833;28;20200;-37
2022/04/26 05:12:53;;;;;;;6.53;4.10;;;10.80;96.10;;;;;;5030752;28;21200;-37
2022/04/26 05:15:20;;;;;;;6.90;4.23;;;10.80;96.10;;;;;;5026681;28;20262;-37
2022/04/26 05:17:49;;;;;;;7.17;4.50;;;10.80;96.20;;;;;;5044341;28;20243;-37
2022/04/26 05:20:17;;;;;;;5.80;4.93;;;10.80;96.30;;;;;;5042008;28;20239;-37
2022/04/26 05:25:34;;;;;;;6.00;4.93;;;10.80;96.20;;;;;;5047075;28;20200;-37
2022/04/26 05:28:04;;;;;;;6.17;4.83;;;10.80;96.40;;;;;;5045821;28;20271;-44
2022/04/26 05:30:31;;;;;;;6.97;4.40;;;10.80;96.40;;;;;;5046824;28;20201;-45
2022/04/26 05:32:59;;;;;;;6.17;4.57;;;10.80;96.20;;;;;;5038352;28;20775;-44
2022/04/26 05:35:28;;;;;;;6.53;4.28;;;10.80;96.30;;;;;;5043986;28;20189;-45
2022/04/26 05:37:56;;;;;;;5.53;4.37;;;10.80;96.20;;;;;;5044353;28;20200;-45
2022/04/26 05:40:23;;;;;;;5.03;3.87;;;10.90;96.20;;;;;;5046091;28;20224;-45
2022/04/26 05:42:50;;;;;;;6.13;4.30;;;10.90;96.20;;;;;;5040200;28;20284;-45
2022/04/26 05:45:17;;;;;;;9.93;4.37;;;10.90;96.20;;;;;;5052233;28;20244;-44
2022/04/26 05:47:45;;;;;;;6.83;4.80;;;10.90;96.30;;;;;;5044489;28;20292;-46
2022/04/26 05:50:12;;;;;;;5.00;4.10;;;10.90;96.40;;;;;;5034865;28;20526;-44
2022/04/26 05:52:40;;;;;;;6.78;4.65;;;10.90;96.20;;;;;;5029179;28;20303;-45
2022/04/26 05:55:07;;;;;;;4.40;4.00;;;10.90;96.40;;;;;;5031603;28;20719;-44
2022/04/26 05:57:38;;;;;;;5.17;4.33;;;10.90;96.10;;;;;;5039423;28;20227;-46
2022/04/26 06:00:12;;;;;;;5.60;4.50;;;10.90;96.40;;;;;;5049753;28;20238;-45
2022/04/26 06:02:41;;;;;;;5.83;4.47;;;10.90;96.40;;;;;;5028080;28;20201;-46
2022/04/26 06:05:09;;;;;;;5.43;4.90;;;10.90;96.20;;;;;;5029265;28;20280;-44
2022/04/26 06:07:37;;;;;;;7.13;4.30;;;10.90;96.50;;;;;;5027931;28;20271;-45
2022/04/26 06:10:05;;;;;;;4.97;3.87;;;10.80;96.30;;;;;;5034287;28;20208;-46
2022/04/26 06:12:33;;;;;;;6.37;4.60;;;10.80;96.20;;;;;;5044335;28;20249;-46
2022/04/26 06:15:01;;;;;;;7.30;4.63;;;10.90;96.20;;;;;;5027735;28;20216;-44
2022/04/26 06:17:32;;;;;;;5.65;4.18;;;10.90;96.20;;;;;;5028045;28;20209;-46
2022/04/26 06:19:59;;;;;;;5.90;5.00;;;10.90;96.20;;;;;;5029567;28;20615;-47
2022/04/26 06:22:26;;;;;;;6.03;4.57;;;10.90;96.20;;;;;;5042779;28;20208;-45
2022/04/26 06:24:54;;;;;;;7.27;4.53;;;10.90;96.30;;;;;;5036853;28;20762;-44
2022/04/26 06:27:24;;;;;;;5.73;4.50;;;10.90;96.30;;;;;;5029889;28;20704;-44
2022/04/26 06:29:56;;;;;;;9.17;5.10;;;10.90;96.50;;;;;;5035040;28;20205;-45
2022/04/26 06:32:23;;;;;;;6.80;4.35;;;10.90;96.80;;;;;;5028987;28;20742;-44
2022/04/26 06:34:52;;;;;;;5.45;4.60;;;10.90;96.30;;;;;;5034216;28;20221;-45
2022/04/26 06:37:23;;;;;;;7.63;5.13;;;10.90;96.30;;;;;;5037395;28;20215;-46
2022/04/26 06:39:51;;;;;;;7.60;5.00;;;10.90;96.60;;;;;;5029061;28;20216;-46
2022/04/26 06:42:19;;;;;;;6.33;4.70;;;10.90;96.50;;;;;;5027728;28;20726;-46
2022/04/26 06:44:46;;;;;;;5.80;4.43;;;10.90;96.50;;;;;;5034635;28;20210;-44
2022/04/26 06:47:14;;;;;;;7.77;4.87;;;10.90;96.40;;;;;;5033067;28;20204;-46
2022/04/26 06:49:43;;;;;;;5.13;4.20;;;11.00;96.40;;;;;;5029839;28;20209;-45
2022/04/26 06:52:10;;;;;;;7.47;4.67;;;11.00;96.40;;;;;;5044650;28;20315;-46
2022/04/26 06:54:38;;;;;;;6.70;4.33;;;11.10;96.50;;;;;;5028966;28;20291;-47
2022/04/26 06:57:05;;;;;;;5.67;4.93;;;11.10;96.50;;;;;;5049103;28;20219;-46
2022/04/26 06:59:32;;;;;;;6.03;4.70;;;11.10;96.60;;;;;;5045747;28;20578;-37
2022/04/26 07:02:00;;;;;;;9.37;4.77;;;11.20;96.60;;;;;;5045501;28;21106;-37
2022/04/26 07:04:30;;;;;;;5.33;4.47;;;11.20;96.50;;;;;;5039548;28;20730;-38
2022/04/26 07:06:59;;;;;;;6.23;4.50;;;11.20;96.90;;;;;;5047548;28;20352;-37
2022/04/26 07:09:26;;;;;;;8.85;4.70;;;11.20;96.70;;;;;;5040828;28;20209;-37
2022/04/26 07:11:53;;;;;;;7.20;4.67;;;11.20;96.50;;;;;;5038037;28;20201;-37
2022/04/26 07:14:21;;;;;;;6.63;4.60;;;11.20;96.70;;;;;;5029867;28;20197;-37
2022/04/26 07:16:50;;;;;;;6.07;4.63;;;11.20;96.60;;;;;;5047574;28;20208;-37
2022/04/26 07:19:17;;;;;;;5.37;4.20;;;11.20;96.70;;;;;;5045371;28;20224;-37
2022/04/26 07:21:47;;;;;;;5.70;4.40;;;11.30;96.60;;;;;;5032476;28;20696;-37
2022/04/26 07:24:31;;;;;;;7.13;4.83;;;11.30;96.60;;;;;;5037331;28;20639;-37
2022/04/26 07:26:59;;;;;;;7.67;5.00;;;11.30;96.80;;;;;;5048590;28;20200;-36
2022/04/26 07:29:26;;;;;;;4.82;3.85;;;11.30;97.00;;;;;;5042548;28;20306;-36
2022/04/26 07:31:54;;;;;;;5.40;3.83;;;11.20;96.60;;;;;;5042087;28;20239;-36
2022/04/26 07:34:25;;;;;;;4.95;3.53;;;11.20;96.50;;;;;;5042264;28;20217;-36
2022/04/26 07:37:04;;;;;;;4.90;4.40;;;11.30;96.30;;;;;;5028457;28;20221;-37
2022/04/26 07:39:33;;;;;;;5.35;4.13;;;11.30;96.50;;;;;;5032443;28;20897;-36
2022/04/26 07:42:05;;;;;;;4.63;3.90;;;11.30;96.40;;;;;;5035253;28;20639;-36
2022/04/26 07:44:35;;;;;;;4.57;3.90;;;11.30;96.20;;;;;;5039142;28;20241;-36
2022/04/26 07:47:05;;;;;;;5.40;4.07;;;11.30;96.30;;;;;;5051583;28;20687;-37
2022/04/26 07:49:32;;;;;;;7.40;4.90;;;11.30;96.40;;;;;;5046207;28;20200;-40
2022/04/26 07:52:05;;;;;;;4.73;3.90;;;11.30;96.60;;;;;;5039617;28;20713;-36
2022/04/26 07:54:33;;;;;;;4.93;4.20;;;11.30;96.40;;;;;;5027812;28;20213;-36
2022/04/26 07:57:01;;;;;;;6.87;4.50;;;11.40;96.60;;;;;;5030266;28;20219;-36
2022/04/26 07:59:28;;;;;;;7.97;4.72;;;11.40;96.50;;;;;;5028019;28;20232;-37
2022/04/26 08:01:57;;;;;;;8.73;4.07;;;11.40;96.50;;;;;;5034075;28;20703;-37
2022/04/26 08:04:25;;;;;;;7.47;4.20;;;11.40;96.50;;;;;;5046801;28;20303;-37
2022/04/26 08:06:52;;;;;;;9.90;4.40;;;11.50;96.50;;;;;;5044778;28;20203;-37
2022/04/26 08:09:19;;;;;;;9.80;5.27;;;11.50;96.60;;;;;;5040010;28;20205;-36
2022/04/26 08:11:49;;;;;;;7.93;4.03;;;11.50;96.70;;;;;;5028501;28;20310;-37
2022/04/26 08:14:20;;;;;;;6.72;3.97;;;11.50;96.50;;;;;;5027920;28;20280;-36
2022/04/26 08:16:47;;;;;;;7.47;4.63;;;11.60;96.70;;;;;;5028961;28;20224;-37
2022/04/26 08:19:14;;;;;;;9.23;5.03;;;11.70;96.80;;;;;;5046430;28;20216;-37
2022/04/26 08:21:42;;;;;;;6.50;4.93;;;11.70;96.90;;;;;;5047787;28;20188;-37
2022/04/26 08:29:42;;;;;;;5.87;5.10;;;11.70;96.80;;;;;;5037641;28;20197;-48
2022/04/26 08:32:13;;;;;;;10.57;5.27;;;11.70;96.80;;;;;;5039814;28;20672;-49
2022/04/26 08:34:41;;;;;;;6.93;4.13;;;11.80;96.80;;;;;;5026391;28;20197;-47
2022/04/26 08:37:11;;;;;;;8.60;4.97;;;11.90;96.60;;;;;;5030128;28;20219;-48
2022/04/26 08:39:38;;;;;;;7.93;4.77;;;11.90;96.70;;;;;;5047562;28;20223;-48
2022/04/26 08:42:09;;;;;;;8.43;5.23;;;12.00;96.80;;;;;;5044950;28;20281;-46
2022/04/26 08:44:38;;;;;;;8.53;4.47;;;12.10;96.80;;;;;;5031954;28;20769;-47
2022/04/26 08:52:49;;;;;;;6.30;4.63;;;12.30;96.80;;;;;;5028647;28;20220;-47
2022/04/26 08:55:17;;;;;;;9.57;4.93;;;12.30;96.80;;;;;;5042142;28;20305;-48
2022/04/26 08:57:44;;;;;;;7.83;5.27;;;12.40;96.90;;;;;;5034525;28;20208;-49
2022/04/26 09:00:13;;;;;;;9.13;5.40;;;12.40;96.80;;;;;;5044491;28;20224;-49
2022/04/26 09:02:41;;;;;;;5.70;4.90;;;12.50;96.90;;;;;;5028943;28;20205;-47
2022/04/26 09:05:15;;;;;;;5.53;4.83;;;12.60;96.50;;;;;;5027324;28;20228;-47
2022/04/26 09:07:47;;;;;;;7.50;5.00;;;12.50;96.40;;;;;;5025297;28;20197;-49
2022/04/26 09:10:17;;;;;;;7.57;4.53;;;12.60;96.50;;;;;;5026055;28;20569;-49
2022/04/26 09:12:56;;;;;;;5.72;4.60;;;12.60;96.40;;;;;;5037893;28;20200;-50
2022/04/26 09:15:24;;;;;;;4.93;4.43;;;12.50;95.90;;;;;;5041151;28;20213;-49
2022/04/26 09:17:52;;;;;;;5.90;4.57;;;12.50;96.00;;;;;;5034615;28;20193;-50
2022/04/26 09:20:34;;;;;;;6.93;4.45;;;12.60;96.10;;;;;;5032109;28;20216;-50
2022/04/26 09:23:02;;;;;;;7.00;4.70;;;12.70;96.20;;;;;;5046588;28;20205;-48
2022/04/26 09:25:31;;;;;;;13.73;5.37;;;12.60;95.90;;;;;;5047020;28;20220;-49
2022/04/26 09:28:01;;;;;;;8.52;5.00;;;12.70;95.90;;;;;;5038545;28;20197;-48
2022/04/26 09:30:34;;;;;;;5.32;4.80;;;12.60;95.70;;;;;;5039676;28;20212;-47
2022/04/26 09:33:02;;;;;;;7.38;5.35;;;12.60;95.80;;;;;;5044704;28;20262;-47
2022/04/26 09:35:32;;;;;;;8.70;5.20;;;12.60;95.60;;;;;;5029282;28;20197;-49
2022/04/26 09:37:59;;;;;;;11.95;5.90;;;12.70;95.80;;;;;;5033221;28;20320;-37
2022/04/26 09:40:34;;;;;;;6.07;4.97;;;12.80;95.80;;;;;;5030469;28;20262;-37
2022/04/26 09:43:02;;;;;;;7.32;5.13;;;12.70;95.80;;;;;;5031846;28;20281;-37
2022/04/26 09:45:29;;;;;;;7.43;5.45;;;12.80;95.60;;;;;;5047883;28;20227;-37
2022/04/26 09:47:58;;;;;;;6.18;4.90;;;12.80;95.80;;;;;;5038089;28;20287;-37
2022/04/26 09:50:26;;;;;;;7.13;4.60;;;12.90;95.60;;;;;;5045242;28;20209;-37
2022/04/26 09:52:55;;;;;;;7.00;4.80;;;13.00;95.80;;;;;;5032183;28;20620;-37
2022/04/26 09:55:23;;;;;;;8.07;5.20;;;13.10;95.80;;;;;;5034490;28;20268;-38
2022/04/26 09:57:52;;;;;;;5.88;4.35;;;13.10;95.90;;;;;;5036753;28;20200;-38
2022/04/26 10:00:22;;;;;;;7.53;4.63;;;13.30;95.90;;;;;;5033109;28;20267;-49
2022/04/26 10:02:56;;;;;;;8.60;4.72;;;13.40;95.80;;;;;;5032368;28;20243;-49
2022/04/26 10:05:26;;;;;;;5.53;4.40;;;13.40;95.90;;;;;;5049263;28;20196;-36
2022/04/26 10:07:54;;;;;;;4.93;4.25;;;13.50;95.60;;;;;;5036683;28;20230;-36
2022/04/26 10:10:23;;;;;;;7.05;4.78;;;13.50;95.40;;;;;;5035728;28;20205;-36
2022/04/26 10:15:37;;;;;;;6.82;4.85;;;13.50;95.50;;;;;;5032950;28;20679;-37
2022/04/26 10:18:43;;;;;;;6.20;4.63;;;13.50;95.40;;;;;;5045514;28;20204;-47
2022/04/26 10:21:31;;;;;;;7.18;4.82;;;13.70;95.60;;;;;;5050606;28;20236;-49
2022/04/26 10:24:01;;;;;;;8.45;4.82;;;13.70;95.20;;;;;;5039603;28;20315;-50
2022/04/26 10:26:30;;;;;;;5.93;4.20;;;13.70;95.10;;;;;;5030533;28;20193;-49
2022/04/26 10:29:06;;;;;;;5.43;4.30;;;13.70;95.10;;;;;;5041837;28;20334;-50
2022/04/26 10:31:39;;;;;;;7.15;5.25;;;13.80;95.60;;;;;;5048365;28;20323;-51
2022/04/26 10:34:31;;;;;;;8.68;5.03;;;14.00;95.20;;;;;;5048716;28;20694;-48
2022/04/26 10:36:59;;;;;;;7.00;4.80;;;14.00;95.20;;;;;;5043392;28;20209;-51
2022/04/26 10:39:31;;;;;;;5.67;4.80;;;14.00;95.20;;;;;;5046205;28;20299;-37
2022/04/26 10:42:11;;;;;;;9.60;4.93;;;13.90;95.20;;;;;;5032759;28;20229;-36
2022/04/26 10:44:43;;;;;;;8.53;5.67;;;14.10;95.30;;;;;;5031043;28;20205;-37
2022/04/26 10:47:22;;;;;;;7.22;4.97;;;14.10;95.50;;;;;;5043206;28;20236;-36
2022/04/26 10:49:50;;;;;;;10.00;5.10;;;14.20;95.30;;;;;;5040454;28;20298;-36
2022/04/26 10:52:24;;;;;;;5.15;4.65;;;14.20;95.10;;;;;;5038767;28;20205;-37
2022/04/26 10:55:06;;;;;;;7.10;5.32;;;14.20;95.30;;;;;;5027936;28;20837;-37
2022/04/26 10:57:45;;;;;;;7.93;5.22;;;14.30;95.30;;;;;;5042354;28;20224;-37
2022/04/26 11:00:32;;;;;;;7.32;4.47;;;14.30;94.80;;;;;;5029400;28;20232;-36
2022/04/26 11:03:02;;;;;;;6.03;5.00;;;14.30;95.50;;;;;;5037554;28;20575;-37
2022/04/26 11:05:32;;;;;;;6.50;5.05;;;14.50;95.70;;;;;;5033717;28;20223;-36
2022/04/26 11:08:02;;;;;;;6.78;5.28;;;14.60;96.00;;;;;;5032516;28;20760;-36
2022/04/26 11:11:00;;;;;;;8.23;5.30;;;14.80;95.50;;;;;;5042582;28;20219;-37
2022/04/26 11:13:21;;;;;;;9.25;5.53;;;14.90;95.70;;;;;;5048693;28;20303;-47
2022/04/26 11:15:48;;;;;;;5.72;5.10;;;15.00;95.60;;;;;;5041654;28;20235;-49
2022/04/26 11:18:21;;;;;;;6.88;5.25;;;15.00;95.30;;;;;;5033370;28;20215;-49
2022/04/26 11:20:52;;;;;;;6.60;5.25;;;15.10;95.60;;;;;;5037699;28;20630;-47
2022/04/26 11:29:25;;;;;;;9.68;5.00;;;15.20;95.10;;;;;;5043263;28;20207;-50
2022/04/26 11:31:52;;;;;;;10.18;4.82;;;15.10;95.20;;;;;;5027045;28;20232;-47
2022/04/26 11:34:22;;;;;;;5.32;4.40;;;15.10;95.00;;;;;;5032467;28;20346;-46
2022/04/26 11:36:50;;;;;;;7.25;5.68;;;15.20;95.50;;;;;;5031699;28;20299;-47
2022/04/26 11:39:17;;;;;;;9.80;5.00;;;15.30;95.50;;;;;;5028851;28;20205;-47
2022/04/26 11:41:47;;;;;;;6.68;4.95;;;15.30;95.40;;;;;;5036821;28;20314;-50
2022/04/26 11:44:15;;;;;;;5.35;4.82;;;15.40;95.50;;;;;;5029267;28;20402;-38
2022/04/26 11:47:00;;;;;;;6.93;4.60;;;15.40;95.00;;;;;;5036967;28;20706;-38
2022/04/26 11:49:38;;;;;;;7.43;4.93;;;15.50;95.30;;;;;;5028392;28;20296;-38
2022/04/26 11:52:06;;;;;;;8.57;5.45;;;15.50;95.30;;;;;;5028342;28;20317;-38
2022/04/26 11:54:34;;;;;;;6.72;5.10;;;15.60;94.60;;;;;;5042735;28;20204;-39
2022/04/26 11:57:04;;;;;;;6.43;4.80;;;15.50;94.50;;;;;;5045100;28;20204;-38
2022/04/26 11:59:34;;;;;;;7.10;4.72;;;15.50;94.50;;;;;;5038423;28;20212;-38
2022/04/26 12:02:03;;;;;;;5.30;4.80;;;15.50;94.30;;;;;;5027892;28;20231;-38
2022/04/26 12:04:30;;;;;;;8.13;4.75;;;15.50;94.60;;;;;;5032038;28;20196;-38
2022/04/26 12:06:59;;;;;;;7.60;4.88;;;15.50;94.60;;;;;;5031117;28;20208;-39
2022/04/26 12:09:26;;;;;;;5.22;3.38;;;15.40;94.10;;;;;;5042019;28;20593;-38
2022/04/26 12:12:05;;;;;;;7.60;5.07;;;15.40;94.90;;;;;;5028511;28;20595;-38
2022/04/26 12:14:37;;;;;;;7.32;4.90;;;15.20;94.30;;;;;;5029395;28;20287;-39
2022/04/26 12:17:29;;;;;;;9.15;4.60;;;15.30;94.30;;;;;;5031139;28;20249;-38
2022/04/26 12:19:56;;;;;;;7.50;4.30;;;15.20;93.30;;;;;;5039663;28;20287;-38
2022/04/26 12:22:28;;;;;;;8.75;4.00;;;15.20;93.80;;;;;;5026154;28;20228;-38
2022/04/26 12:24:56;;;;;;;6.50;3.35;;;15.20;94.00;;;;;;5027976;28;20212;-37
2022/04/26 12:27:25;;;;;;;5.25;3.53;;;15.20;94.20;;;;;;5027918;28;20224;-37
2022/04/26 12:29:53;;;;;;;4.72;3.13;;;15.30;94.40;;;;;;5026204;28;20239;-37
2022/04/26 12:32:26;;;;;;;4.20;3.17;;;15.20;93.60;;;;;;5026291;28;20208;-37
2022/04/26 12:34:56;;;;;;;7.20;3.97;;;15.20;93.50;;;;;;5027772;28;20224;-39
2022/04/26 12:37:29;;;;;;;6.00;3.45;;;15.10;92.50;;;;;;5026873;28;20212;-38
2022/04/26 12:40:04;;;;;;;3.83;3.38;;;15.00;92.70;;;;;;5027972;28;20205;-39
2022/04/26 12:42:34;;;;;;;6.30;4.20;;;15.00;92.50;;;;;;5027317;28;20231;-38
2022/04/26 12:45:11;;;;;;;3.95;3.10;;;14.90;92.50;;;;;;5045931;28;20583;-38
2022/04/26 12:50:28;;;;;;;6.55;3.20;;;14.90;93.20;;;;;;5027170;28;20193;-37
2022/04/26 12:52:58;;;;;;;6.25;3.20;;;14.90;92.00;;;;;;5027279;28;20221;-37
2022/04/26 12:55:25;;;;;;;5.30;2.90;;;14.90;93.00;;;;;;5027372;28;20259;-37
2022/04/26 12:57:55;;;;;;;5.40;3.00;;;14.90;93.00;;;;;;5026018;28;20228;-37
2022/04/26 13:00:23;;;;;;;6.45;3.60;;;14.90;93.00;;;;;;5034340;28;20561;-48
2022/04/26 13:02:54;;;;;;;6.07;3.30;;;15.00;92.80;;;;;;5030482;28;20250;-45
2022/04/26 13:05:34;;;;;;;5.32;3.70;;;15.00;92.60;;;;;;5030144;28;20235;-48
2022/04/26 13:08:02;;;;;;;4.90;3.30;;;15.00;92.50;;;;;;5045160;28;20312;-45
2022/04/26 13:10:29;;;;;;;5.30;3.60;;;15.10;93.30;;;;;;5035033;28;20216;-47
2022/04/26 13:12:56;;;;;;;5.75;3.97;;;15.20;92.70;;;;;;5047739;28;20204;-45
2022/04/26 13:15:28;;;;;;;6.57;4.47;;;15.20;93.00;;;;;;5030303;28;20231;-37
2022/04/26 13:17:57;;;;;;;6.10;4.00;;;15.30;92.90;;;;;;5029143;28;20263;-36
2022/04/26 13:20:24;;;;;;;6.25;4.45;;;15.40;93.40;;;;;;5031470;28;20236;-37
2022/04/26 13:22:52;;;;;;;6.18;3.90;;;15.50;92.90;;;;;;5030008;28;20220;-37
2022/04/26 13:25:19;;;;;;;8.65;4.53;;;15.50;93.30;;;;;;5040154;28;20204;-37
2022/04/26 13:27:48;;;;;;;4.72;4.18;;;15.50;93.40;;;;;;5050682;28;20679;-37
2022/04/26 13:30:17;;;;;;;4.57;4.15;;;15.50;93.10;;;;;;5048987;28;20204;-37
2022/04/26 13:32:44;;;;;;;5.32;4.50;;;15.60;93.30;;;;;;5032058;28;20210;-36
2022/04/26 13:35:12;;;;;;;5.18;4.05;;;15.60;92.80;;;;;;5034670;28;20232;-35
2022/04/26 13:37:39;;;;;;;7.10;4.68;;;15.60;93.10;;;;;;5030547;28;20221;-36
2022/04/26 13:40:07;;;;;;;5.72;4.68;;;15.70;92.70;;;;;;5029108;28;20465;-36
2022/04/26 13:42:35;;;;;;;5.20;4.70;;;15.80;93.40;;;;;;5030310;28;20220;-37
2022/04/26 13:45:03;;;;;;;6.45;4.38;;;15.80;92.80;;;;;;5040541;28;20235;-36
2022/04/26 13:47:34;;;;;;;4.95;4.35;;;15.80;92.90;;;;;;5068375;28;20214;-36
2022/04/26 13:50:03;;;;;;;8.88;4.30;;;15.80;93.30;;;;;;5048586;28;20204;-36
2022/04/26 13:52:30;;;;;;;6.13;4.03;;;15.90;92.90;;;;;;5041934;28;20300;-36
2022/04/26 13:54:58;;;;;;;5.65;4.45;;;16.00;93.30;;;;;;5031056;28;20316;-44
2022/04/26 13:57:26;;;;;;;6.32;4.43;;;16.00;93.30;;;;;;5027854;28;20251;-45
2022/04/26 13:59:55;;;;;;;4.63;3.75;;;16.20;93.20;;;;;;5029296;28;20232;-44
2022/04/26 14:02:23;;;;;;;4.70;3.58;;;16.20;92.60;;;;;;5032382;28;20592;-44
2022/04/26 14:04:51;;;;;;;4.22;3.22;;;16.30;93.40;;;;;;5042417;28;20201;-43
2022/04/26 14:07:20;;;;;;;4.82;3.83;;;16.40;93.50;;;;;;5049258;28;20238;-46
2022/04/26 14:09:48;;;;;;;4.95;3.85;;;16.40;93.70;;;;;;5044206;28;20204;-45
2022/04/26 14:12:18;;;;;;;5.70;4.13;;;16.40;92.90;;;;;;5048747;28;20315;-48
2022/04/26 14:23:31;;;;;;;5.22;3.42;;;16.50;93.00;;;;;;5034085;28;20726;-47
2022/04/26 14:25:59;;;;;;;5.10;3.67;;;16.60;93.00;;;;;;5038847;28;20578;-45
2022/04/26 14:28:29;;;;;;;6.07;4.20;;;16.60;93.10;;;;;;5038988;28;20584;-46
2022/04/26 14:30:57;;;;;;;5.90;3.83;;;16.60;92.30;;;;;;5044064;28;20207;-48
2022/04/26 14:33:24;;;;;;;6.97;3.97;;;16.50;92.70;;;;;;5039308;28;20567;-46
2022/04/26 14:35:53;;;;;;;4.80;3.40;;;16.60;92.20;;;;;;5039581;28;20209;-45
2022/04/26 14:38:21;;;;;;;3.97;3.40;;;16.60;92.80;;;;;;5040123;28;20407;-46
2022/04/26 14:40:49;;;;;;;5.13;3.80;;;16.90;93.30;;;;;;5031230;28;20208;-46
2022/04/26 14:43:20;;;;;;;4.85;4.03;;;16.90;92.50;;;;;;5033444;28;20197;-46
2022/04/26 14:45:47;;;;;;;4.53;3.63;;;16.90;92.60;;;;;;5037766;28;20769;-47
2022/04/26 14:48:16;;;;;;;5.28;3.92;;;16.90;92.80;;;;;;5027630;28;20204;-46
2022/04/26 14:50:54;;;;;;;7.88;3.75;;;16.90;92.80;;;;;;5027755;28;20203;-45
2022/04/26 14:53:21;;;;;;;6.00;3.70;;;16.80;92.60;;;;;;5046441;28;20259;-45
2022/04/26 14:56:04;;;;;;;8.13;3.97;;;16.90;93.10;;;;;;5027856;28;149961;-47
2022/04/26 14:58:34;;;;;;;5.70;3.38;;;16.80;92.10;;;;;;5011876;28;22105;-45
2022/04/26 15:01:01;;;;;;;6.95;3.88;;;16.80;92.20;;;;;;5030180;28;20689;-46
2022/04/26 15:03:30;;;;;;;6.50;4.10;;;16.70;92.30;;;;;;5034772;28;20201;-48
2022/04/26 15:05:59;;;;;;;4.20;3.42;;;16.70;92.00;;;;;;5029102;28;20239;-47
2022/04/26 15:11:12;;;;;;;4.47;3.80;;;16.60;92.00;;;;;;5028385;28;20209;-46
2022/04/26 15:16:38;;;;;;;7.55;3.80;;;16.50;92.10;;;;;;5033327;28;20205;-46
2022/04/26 15:19:06;;;;;;;5.68;3.53;;;16.50;92.40;;;;;;5029861;28;20726;-48
2022/04/26 15:21:36;;;;;;;5.20;3.97;;;16.60;92.40;;;;;;5032487;28;20421;-47
2022/04/26 15:24:03;;;;;;;5.68;3.75;;;16.80;92.20;;;;;;5046544;28;20289;-48
2022/04/26 15:26:31;;;;;;;3.95;3.40;;;16.80;91.50;;;;;;5039954;28;20266;-47
2022/04/26 15:28:58;;;;;;;7.68;3.63;;;16.80;92.30;;;;;;5033945;28;20578;-47
2022/04/26 15:31:36;;;;;;;5.45;3.35;;;16.80;92.10;;;;;;5034263;28;20667;-45
2022/04/26 15:34:03;;;;;;;5.72;3.63;;;16.70;92.10;;;;;;5029314;28;20204;-45
2022/04/26 15:36:32;;;;;;;4.03;3.63;;;16.70;92.00;;;;;;5029150;28;20263;-46
2022/04/26 15:38:59;;;;;;;6.05;4.00;;;16.70;91.80;;;;;;5045978;28;20286;-47
2022/04/26 15:41:27;;;;;;;6.18;3.53;;;16.50;91.40;;;;;;5037158;28;20314;-47
2022/04/26 15:43:54;;;;;;;4.85;3.72;;;16.50;92.00;;;;;;5032409;28;20239;-46
2022/04/26 15:46:42;;;;;;;5.13;3.42;;;16.60;91.90;;;;;;5029784;28;20245;-45
2022/04/26 15:49:10;;;;;;;4.32;3.67;;;16.60;91.90;;;;;;5044040;28;20306;-45
2022/04/26 15:51:49;;;;;;;4.72;3.65;;;16.50;91.30;;;;;;5037076;28;20710;-45
2022/04/26 15:54:16;;;;;;;4.05;3.65;;;16.40;91.10;;;;;;5033752;28;20267;-46
2022/04/26 15:56:44;;;;;;;5.15;3.75;;;16.40;91.50;;;;;;5029680;28;20234;-47
2022/04/26 15:59:13;;;;;;;6.65;4.03;;;16.40;91.30;;;;;;5040792;28;20309;-45
2022/04/26 16:01:40;;;;;;;6.43;3.88;;;16.40;91.00;;;;;;5041715;28;20307;-45
2022/04/26 16:04:12;;;;;;;4.88;3.45;;;16.30;90.20;;;;;;5030189;28;20296;-45
2022/04/26 16:06:41;;;;;;;7.05;3.83;;;16.30;91.00;;;;;;5044843;28;20214;-44
2022/04/26 16:20:29;;;;;;;5.18;3.60;;;16.30;91.60;;;;;;5036588;28;20647;-46
2022/04/26 16:22:58;;;;;;;4.22;3.30;;;16.40;91.60;;;;;;5031000;28;20231;-46
2022/04/26 16:25:26;;;;;;;5.93;3.50;;;16.40;92.00;;;;;;5025675;28;20200;-46
2022/04/26 16:28:00;;;;;;;3.92;3.20;;;16.50;92.00;;;;;;5031134;28;20280;-38
2022/04/26 16:30:29;;;;;;;6.03;3.70;;;16.50;91.90;;;;;;5031199;28;20213;-37
2022/04/26 16:32:58;;;;;;;4.07;3.28;;;16.60;92.40;;;;;;5029980;28;20208;-38
2022/04/26 16:35:25;;;;;;;7.95;4.50;;;16.70;92.60;;;;;;5030301;28;20200;-42
2022/04/26 16:37:55;;;;;;;7.53;5.60;;;16.80;92.10;;;;;;5024951;28;20215;-38
2022/04/26 16:40:23;;;;;;;5.63;4.15;;;16.80;92.40;;;;;;5027253;28;20216;-37
2022/04/26 16:42:50;;;;;;;4.47;4.03;;;16.80;92.70;;;;;;5028750;28;20247;-37
2022/04/26 16:45:18;;;;;;;5.20;4.05;;;16.90;92.60;;;;;;5023372;28;20953;-37
2022/04/26 16:47:48;;;;;;;5.32;3.97;;;16.90;92.60;;;;;;5035416;28;20322;-37
2022/04/26 16:50:16;;;;;;;4.78;4.07;;;16.90;92.60;;;;;;5025532;28;20228;-37
2022/04/26 16:52:46;;;;;;;4.45;4.05;;;16.90;92.80;;;;;;5027459;28;23167;-48
2022/04/26 16:55:15;;;;;;;4.90;4.10;;;17.00;92.60;;;;;;5034363;28;20627;-39
2022/04/26 16:58:03;;;;;;;3.70;3.28;;;17.00;92.20;;;;;;5015037;28;20215;-39
2022/04/26 17:00:31;;;;;;;5.72;4.60;;;17.00;92.40;;;;;;5033982;28;20409;-38
2022/04/26 17:02:58;;;;;;;4.82;4.28;;;17.20;92.30;;;;;;5024819;28;20228;-37
2022/04/26 17:05:29;;;;;;;5.50;4.07;;;17.10;92.30;;;;;;5025864;28;20216;-38
2022/04/26 17:07:59;;;;;;;4.68;4.00;;;17.10;92.30;;;;;;5026794;28;20193;-38
2022/04/26 17:10:26;;;;;;;7.22;5.05;;;17.10;92.50;;;;;;5033597;28;20657;-38
2022/04/26 17:12:54;;;;;;;6.25;4.78;;;17.10;92.00;;;;;;5027519;28;20216;-38
2022/04/26 17:15:21;;;;;;;8.02;4.55;;;16.90;91.40;;;;;;5031504;28;20220;-38
2022/04/26 17:17:50;;;;;;;4.63;4.15;;;16.80;91.60;;;;;;5033075;28;20208;-38
2022/04/26 17:20:24;;;;;;;6.47;4.43;;;16.80;91.60;;;;;;5042939;28;20196;-38
2022/04/26 17:22:52;;;;;;;5.90;3.97;;;16.70;91.30;;;;;;5040881;28;20308;-38
2022/04/26 17:25:20;;;;;;;4.60;4.18;;;16.60;91.20;;;;;;5046837;28;20200;-38
2022/04/26 17:28:08;;;;;;;6.05;4.18;;;16.50;91.30;;;;;;5040948;28;20208;-45